Barra do Garças Airport
SBBW : now visible

Airfield :











YOU CAN JOIN US ON...

 
LOGIN :

Register | Disclaimer

   EN    FR    IT 

 









Legend :    VFR   Marginal VFR   IFR   Intensive IFR   Very Intensive IFR
Visi :
Ceiling :
>= 8 km
>= 3000ft
5 to 8 km
1000 to 3000 ft
1500m to 5 km
500 to 1000 ft
800 to 1500m
200 to 500 ft
< 800m
< 200 ft
Symbols :   Thunderstorms  Fog  Heavy snow  Heavy precipitations  Wind > 20 kt






- Airport Elevation : 1147 ft
- IATA code : BPG


SBBW - Barra do Garças

CURRENT METAR :
  • 031900Z 30004KT 9999 SCT020 38/15 Q1008

EXPIRED METARs :
  • 031800Z 32003KT 9999 SCT020 40/18 Q1009
  • 031700Z 31003KT 9999 SCT020 40/16 Q1010

TAF TAF SBBW
Valid from the 03 at 18:00 until the 04 at 06:00 UTC


031600Z 0318/0406 34008KT 9999 SCT020 TX40/0318Z TN26/0405Z
PROB30 0319/0322 SCT035 FEW047TCU
BECMG 0322/0324 34004KT CAVOK RMK PHH
SBBS FIR / South America



MET'MAP, your aeronautical weather chart ! - Copyright ORBIFLY December 2007 - Disclaimer

ORBIFLY MET'MAP TEAM :

Programming & Development : Alexandra Zaïnal
Concept & original design : Baudouin d'Aumeries
Assistance for programming : Marc-Olivier Méhu
Technical & hardware support : Manuel Goepfert

Contact : metmap@orbifly.com




SOURCES & CREDITS :

   NOAA       Earth
Advisory